sensor_id;sensor_type;location;lat;lon;timestamp;P1;durP1;ratioP1;P2;durP2;ratioP2
74679;SDS011;63211;48.548;2.704;2023-12-20T00:01:54;2.20;;;0.88;;
74679;SDS011;63211;48.548;2.704;2023-12-20T00:04:21;1.63;;;0.70;;
74679;SDS011;63211;48.548;2.704;2023-12-20T00:06:47;1.92;;;0.82;;
74679;SDS011;63211;48.548;2.704;2023-12-20T00:09:15;1.88;;;0.68;;
74679;SDS011;63211;48.548;2.704;2023-12-20T00:11:42;1.65;;;0.50;;
74679;SDS011;63211;48.548;2.704;2023-12-20T00:14:09;1.73;;;0.85;;
74679;SDS011;63211;48.548;2.704;2023-12-20T00:16:35;1.23;;;0.60;;
74679;SDS011;63211;48.548;2.704;2023-12-20T00:19:02;2.67;;;0.70;;
74679;SDS011;63211;48.548;2.704;2023-12-20T00:21:29;2.55;;;0.80;;
74679;SDS011;63211;48.548;2.704;2023-12-20T00:23:55;2.13;;;0.50;;
74679;SDS011;63211;48.548;2.704;2023-12-20T00:26:23;1.80;;;0.50;;
74679;SDS011;63211;48.548;2.704;2023-12-20T00:28:50;1.58;;;0.60;;
74679;SDS011;63211;48.548;2.704;2023-12-20T00:31:16;1.33;;;0.70;;
74679;SDS011;63211;48.548;2.704;2023-12-20T00:33:43;1.33;;;0.50;;
74679;SDS011;63211;48.548;2.704;2023-12-20T00:36:11;2.47;;;0.50;;
74679;SDS011;63211;48.548;2.704;2023-12-20T00:38:37;1.60;;;0.68;;
74679;SDS011;63211;48.548;2.704;2023-12-20T00:41:04;1.15;;;0.50;;
74679;SDS011;63211;48.548;2.704;2023-12-20T00:43:32;1.25;;;0.40;;
74679;SDS011;63211;48.548;2.704;2023-12-20T00:45:59;1.45;;;0.85;;
74679;SDS011;63211;48.548;2.704;2023-12-20T00:48:26;1.55;;;0.52;;
74679;SDS011;63211;48.548;2.704;2023-12-20T00:50:53;1.20;;;0.40;;
74679;SDS011;63211;48.548;2.704;2023-12-20T00:53:20;0.52;;;0.20;;
74679;SDS011;63211;48.548;2.704;2023-12-20T00:55:46;0.63;;;0.28;;
74679;SDS011;63211;48.548;2.704;2023-12-20T00:58:14;0.82;;;0.40;;
74679;SDS011;63211;48.548;2.704;2023-12-20T01:00:43;1.63;;;0.60;;
74679;SDS011;63211;48.548;2.704;2023-12-20T01:03:10;0.85;;;0.35;;
74679;SDS011;63211;48.548;2.704;2023-12-20T01:05:37;1.50;;;0.30;;
74679;SDS011;63211;48.548;2.704;2023-12-20T01:08:04;1.13;;;0.40;;
74679;SDS011;63211;48.548;2.704;2023-12-20T01:10:31;0.40;;;0.20;;
74679;SDS011;63211;48.548;2.704;2023-12-20T01:12:57;4.13;;;0.60;;
74679;SDS011;63211;48.548;2.704;2023-12-20T01:15:24;0.65;;;0.30;;
74679;SDS011;63211;48.548;2.704;2023-12-20T01:17:52;0.70;;;0.30;;
74679;SDS011;63211;48.548;2.704;2023-12-20T01:20:18;0.88;;;0.35;;
74679;SDS011;63211;48.548;2.704;2023-12-20T01:22:45;1.45;;;0.45;;
74679;SDS011;63211;48.548;2.704;2023-12-20T01:25:12;0.47;;;0.20;;
74679;SDS011;63211;48.548;2.704;2023-12-20T01:27:39;0.77;;;0.30;;
74679;SDS011;63211;48.548;2.704;2023-12-20T01:30:06;0.85;;;0.30;;
74679;SDS011;63211;48.548;2.704;2023-12-20T01:32:33;0.57;;;0.30;;
74679;SDS011;63211;48.548;2.704;2023-12-20T01:35:01;0.68;;;0.40;;
74679;SDS011;63211;48.548;2.704;2023-12-20T01:37:27;0.60;;;0.30;;
74679;SDS011;63211;48.548;2.704;2023-12-20T01:39:54;0.98;;;0.30;;
74679;SDS011;63211;48.548;2.704;2023-12-20T01:42:21;0.55;;;0.25;;
74679;SDS011;63211;48.548;2.704;2023-12-20T01:44:48;1.35;;;0.30;;
74679;SDS011;63211;48.548;2.704;2023-12-20T01:47:14;0.43;;;0.20;;
74679;SDS011;63211;48.548;2.704;2023-12-20T01:49:41;0.50;;;0.20;;
74679;SDS011;63211;48.548;2.704;2023-12-20T01:52:09;0.82;;;0.20;;
74679;SDS011;63211;48.548;2.704;2023-12-20T01:54:36;1.15;;;0.30;;
74679;SDS011;63211;48.548;2.704;2023-12-20T01:57:04;0.75;;;0.17;;
74679;SDS011;63211;48.548;2.704;2023-12-20T01:59:32;0.68;;;0.30;;
74679;SDS011;63211;48.548;2.704;2023-12-20T02:02:00;0.30;;;0.28;;
74679;SDS011;63211;48.548;2.704;2023-12-20T02:04:27;0.82;;;0.30;;
74679;SDS011;63211;48.548;2.704;2023-12-20T02:06:54;0.52;;;0.25;;
74679;SDS011;63211;48.548;2.704;2023-12-20T02:09:23;0.45;;;0.20;;
74679;SDS011;63211;48.548;2.704;2023-12-20T02:11:50;0.25;;;0.10;;
74679;SDS011;63211;48.548;2.704;2023-12-20T02:14:16;0.63;;;0.20;;
74679;SDS011;63211;48.548;2.704;2023-12-20T02:16:43;0.47;;;0.10;;
74679;SDS011;63211;48.548;2.704;2023-12-20T02:19:11;0.63;;;0.22;;
74679;SDS011;63211;48.548;2.704;2023-12-20T02:21:41;0.20;;;0.10;;
74679;SDS011;63211;48.548;2.704;2023-12-20T02:24:08;0.43;;;0.10;;
74679;SDS011;63211;48.548;2.704;2023-12-20T02:26:34;0.43;;;0.10;;
74679;SDS011;63211;48.548;2.704;2023-12-20T02:29:01;0.50;;;0.10;;
74679;SDS011;63211;48.548;2.704;2023-12-20T02:31:28;0.50;;;0.15;;
74679;SDS011;63211;48.548;2.704;2023-12-20T02:33:55;1.58;;;0.10;;
74679;SDS011;63211;48.548;2.704;2023-12-20T02:36:21;0.57;;;0.10;;
74679;SDS011;63211;48.548;2.704;2023-12-20T02:38:49;0.30;;;0.17;;
74679;SDS011;63211;48.548;2.704;2023-12-20T02:41:16;0.90;;;0.15;;
74679;SDS011;63211;48.548;2.704;2023-12-20T02:43:43;0.38;;;0.20;;
74679;SDS011;63211;48.548;2.704;2023-12-20T02:46:09;0.70;;;0.20;;
74679;SDS011;63211;48.548;2.704;2023-12-20T02:48:36;0.08;;;0.00;;
74679;SDS011;63211;48.548;2.704;2023-12-20T02:51:03;0.20;;;0.10;;
74679;SDS011;63211;48.548;2.704;2023-12-20T02:53:29;1.60;;;0.10;;
74679;SDS011;63211;48.548;2.704;2023-12-20T02:55:57;0.10;;;0.03;;
74679;SDS011;63211;48.548;2.704;2023-12-20T02:58:24;0.40;;;0.03;;
74679;SDS011;63211;48.548;2.704;2023-12-20T03:00:50;0.20;;;0.10;;
74679;SDS011;63211;48.548;2.704;2023-12-20T03:03:17;0.40;;;0.10;;
74679;SDS011;63211;48.548;2.704;2023-12-20T03:05:44;0.30;;;0.10;;
74679;SDS011;63211;48.548;2.704;2023-12-20T03:08:12;0.50;;;0.00;;
74679;SDS011;63211;48.548;2.704;2023-12-20T03:10:38;0.17;;;0.03;;
74679;SDS011;63211;48.548;2.704;2023-12-20T03:13:06;0.22;;;0.10;;
74679;SDS011;63211;48.548;2.704;2023-12-20T03:15:33;0.03;;;0.00;;
74679;SDS011;63211;48.548;2.704;2023-12-20T03:17:59;0.47;;;0.10;;
74679;SDS011;63211;48.548;2.704;2023-12-20T03:20:26;0.00;;;0.00;;
74679;SDS011;63211;48.548;2.704;2023-12-20T03:22:52;0.15;;;0.03;;
74679;SDS011;63211;48.548;2.704;2023-12-20T03:25:19;0.55;;;0.05;;
74679;SDS011;63211;48.548;2.704;2023-12-20T03:27:45;0.10;;;0.00;;
74679;SDS011;63211;48.548;2.704;2023-12-20T03:30:13;0.20;;;0.08;;
74679;SDS011;63211;48.548;2.704;2023-12-20T03:32:40;0.43;;;0.00;;
74679;SDS011;63211;48.548;2.704;2023-12-20T03:35:07;0.17;;;0.05;;
74679;SDS011;63211;48.548;2.704;2023-12-20T03:37:33;0.70;;;0.00;;
74679;SDS011;63211;48.548;2.704;2023-12-20T03:40:00;0.57;;;0.03;;
74679;SDS011;63211;48.548;2.704;2023-12-20T03:42:26;0.40;;;0.00;;
74679;SDS011;63211;48.548;2.704;2023-12-20T03:44:53;0.10;;;0.00;;
74679;SDS011;63211;48.548;2.704;2023-12-20T03:47:21;0.00;;;0.00;;
74679;SDS011;63211;48.548;2.704;2023-12-20T03:49:47;0.30;;;0.00;;
74679;SDS011;63211;48.548;2.704;2023-12-20T03:52:14;0.08;;;0.00;;
74679;SDS011;63211;48.548;2.704;2023-12-20T03:54:41;0.22;;;0.03;;
74679;SDS011;63211;48.548;2.704;2023-12-20T03:57:07;0.47;;;0.00;;
74679;SDS011;63211;48.548;2.704;2023-12-20T04:02:57;0.30;;;0.10;;
74679;SDS011;63211;48.548;2.704;2023-12-20T04:05:24;3.72;;;0.10;;
74679;SDS011;63211;48.548;2.704;2023-12-20T04:07:50;0.10;;;0.00;;
74679;SDS011;63211;48.548;2.704;2023-12-20T04:10:17;0.08;;;0.00;;
74679;SDS011;63211;48.548;2.704;2023-12-20T04:12:43;0.10;;;0.00;;
74679;SDS011;63211;48.548;2.704;2023-12-20T04:15:10;0.20;;;0.00;;
74679;SDS011;63211;48.548;2.704;2023-12-20T04:17:37;0.32;;;0.00;;
74679;SDS011;63211;48.548;2.704;2023-12-20T04:20:05;0.00;;;0.00;;
74679;SDS011;63211;48.548;2.704;2023-12-20T04:22:33;0.17;;;0.00;;
74679;SDS011;63211;48.548;2.704;2023-12-20T04:24:59;0.22;;;0.08;;
74679;SDS011;63211;48.548;2.704;2023-12-20T04:27:26;0.35;;;0.05;;
74679;SDS011;63211;48.548;2.704;2023-12-20T04:29:52;0.20;;;0.00;;
74679;SDS011;63211;48.548;2.704;2023-12-20T04:32:19;0.60;;;0.03;;
74679;SDS011;63211;48.548;2.704;2023-12-20T04:34:45;0.65;;;0.10;;
74679;SDS011;63211;48.548;2.704;2023-12-20T04:37:13;0.43;;;0.10;;
74679;SDS011;63211;48.548;2.704;2023-12-20T04:39:40;0.13;;;0.00;;
74679;SDS011;63211;48.548;2.704;2023-12-20T04:42:06;0.28;;;0.05;;
74679;SDS011;63211;48.548;2.704;2023-12-20T04:44:33;0.60;;;0.00;;
74679;SDS011;63211;48.548;2.704;2023-12-20T04:47:00;0.20;;;0.03;;
74679;SDS011;63211;48.548;2.704;2023-12-20T04:49:27;0.05;;;0.00;;
74679;SDS011;63211;48.548;2.704;2023-12-20T04:51:53;0.95;;;0.00;;
74679;SDS011;63211;48.548;2.704;2023-12-20T04:54:22;0.15;;;0.00;;
74679;SDS011;63211;48.548;2.704;2023-12-20T04:56:49;0.00;;;0.00;;
74679;SDS011;63211;48.548;2.704;2023-12-20T04:59:15;0.30;;;0.00;;
74679;SDS011;63211;48.548;2.704;2023-12-20T05:01:42;0.08;;;0.00;;
74679;SDS011;63211;48.548;2.704;2023-12-20T05:04:08;0.08;;;0.08;;
74679;SDS011;63211;48.548;2.704;2023-12-20T05:06:35;0.30;;;0.00;;
74679;SDS011;63211;48.548;2.704;2023-12-20T05:09:02;0.20;;;0.00;;
74679;SDS011;63211;48.548;2.704;2023-12-20T05:11:30;0.55;;;0.10;;
74679;SDS011;63211;48.548;2.704;2023-12-20T05:13:57;0.47;;;0.00;;
74679;SDS011;63211;48.548;2.704;2023-12-20T05:16:23;0.20;;;0.00;;
74679;SDS011;63211;48.548;2.704;2023-12-20T05:18:50;0.63;;;0.10;;
74679;SDS011;63211;48.548;2.704;2023-12-20T05:21:17;0.20;;;0.00;;
74679;SDS011;63211;48.548;2.704;2023-12-20T05:23:43;0.22;;;0.10;;
74679;SDS011;63211;48.548;2.704;2023-12-20T05:26:09;0.20;;;0.00;;
74679;SDS011;63211;48.548;2.704;2023-12-20T05:28:37;0.10;;;0.00;;
74679;SDS011;63211;48.548;2.704;2023-12-20T05:31:04;0.22;;;0.10;;
74679;SDS011;63211;48.548;2.704;2023-12-20T05:33:31;0.00;;;0.00;;
74679;SDS011;63211;48.548;2.704;2023-12-20T05:35:58;0.55;;;0.10;;
74679;SDS011;63211;48.548;2.704;2023-12-20T05:38:25;3.03;;;0.10;;
74679;SDS011;63211;48.548;2.704;2023-12-20T05:40:51;0.68;;;0.30;;
74679;SDS011;63211;48.548;2.704;2023-12-20T05:43:18;0.43;;;0.00;;
74679;SDS011;63211;48.548;2.704;2023-12-20T05:45:46;0.13;;;0.00;;
74679;SDS011;63211;48.548;2.704;2023-12-20T05:48:12;0.15;;;0.03;;
74679;SDS011;63211;48.548;2.704;2023-12-20T05:50:39;0.20;;;0.00;;
74679;SDS011;63211;48.548;2.704;2023-12-20T05:53:05;0.80;;;0.10;;
74679;SDS011;63211;48.548;2.704;2023-12-20T05:55:32;1.00;;;0.10;;
74679;SDS011;63211;48.548;2.704;2023-12-20T05:57:59;0.50;;;0.00;;
74679;SDS011;63211;48.548;2.704;2023-12-20T06:00:26;0.28;;;0.08;;
74679;SDS011;63211;48.548;2.704;2023-12-20T06:02:53;0.65;;;0.20;;
74679;SDS011;63211;48.548;2.704;2023-12-20T06:05:20;0.55;;;0.00;;
74679;SDS011;63211;48.548;2.704;2023-12-20T06:07:47;0.73;;;0.20;;
74679;SDS011;63211;48.548;2.704;2023-12-20T06:10:15;0.75;;;0.00;;
74679;SDS011;63211;48.548;2.704;2023-12-20T06:12:42;0.40;;;0.30;;
74679;SDS011;63211;48.548;2.704;2023-12-20T06:15:09;0.00;;;0.00;;
74679;SDS011;63211;48.548;2.704;2023-12-20T06:17:36;0.28;;;0.00;;
74679;SDS011;63211;48.548;2.704;2023-12-20T06:20:04;0.10;;;0.00;;
74679;SDS011;63211;48.548;2.704;2023-12-20T06:22:33;0.17;;;0.00;;
74679;SDS011;63211;48.548;2.704;2023-12-20T06:25:00;0.17;;;0.00;;
74679;SDS011;63211;48.548;2.704;2023-12-20T06:27:26;0.40;;;0.10;;
74679;SDS011;63211;48.548;2.704;2023-12-20T06:29:53;0.50;;;0.00;;
74679;SDS011;63211;48.548;2.704;2023-12-20T06:32:20;0.13;;;0.00;;
74679;SDS011;63211;48.548;2.704;2023-12-20T06:34:48;0.22;;;0.03;;
74679;SDS011;63211;48.548;2.704;2023-12-20T06:37:16;0.10;;;0.00;;
74679;SDS011;63211;48.548;2.704;2023-12-20T06:39:42;0.10;;;0.00;;
74679;SDS011;63211;48.548;2.704;2023-12-20T06:42:09;0.63;;;0.03;;
74679;SDS011;63211;48.548;2.704;2023-12-20T06:44:36;0.17;;;0.10;;
74679;SDS011;63211;48.548;2.704;2023-12-20T06:47:02;0.52;;;0.30;;
74679;SDS011;63211;48.548;2.704;2023-12-20T06:49:29;0.30;;;0.13;;
74679;SDS011;63211;48.548;2.704;2023-12-20T06:51:55;1.05;;;0.10;;
74679;SDS011;63211;48.548;2.704;2023-12-20T06:54:23;0.25;;;0.00;;
74679;SDS011;63211;48.548;2.704;2023-12-20T06:56:50;0.05;;;0.00;;
74679;SDS011;63211;48.548;2.704;2023-12-20T06:59:16;0.00;;;0.00;;
74679;SDS011;63211;48.548;2.704;2023-12-20T07:01:47;0.17;;;0.10;;
74679;SDS011;63211;48.548;2.704;2023-12-20T07:04:14;0.25;;;0.00;;
74679;SDS011;63211;48.548;2.704;2023-12-20T07:06:40;10.38;;;1.65;;
74679;SDS011;63211;48.548;2.704;2023-12-20T07:09:07;50.70;;;6.55;;
74679;SDS011;63211;48.548;2.704;2023-12-20T07:11:35;28.30;;;5.50;;
74679;SDS011;63211;48.548;2.704;2023-12-20T07:14:01;25.40;;;4.72;;
74679;SDS011;63211;48.548;2.704;2023-12-20T07:16:28;32.60;;;6.63;;
74679;SDS011;63211;48.548;2.704;2023-12-20T07:18:54;47.10;;;8.35;;
74679;SDS011;63211;48.548;2.704;2023-12-20T07:21:22;35.78;;;8.02;;
74679;SDS011;63211;48.548;2.704;2023-12-20T07:23:48;43.83;;;9.95;;
74679;SDS011;63211;48.548;2.704;2023-12-20T07:26:15;52.30;;;9.48;;
74679;SDS011;63211;48.548;2.704;2023-12-20T07:28:43;35.70;;;7.60;;
74679;SDS011;63211;48.548;2.704;2023-12-20T07:31:09;31.02;;;6.25;;
74679;SDS011;63211;48.548;2.704;2023-12-20T07:33:36;42.83;;;6.95;;
74679;SDS011;63211;48.548;2.704;2023-12-20T07:36:03;41.53;;;7.32;;
74679;SDS011;63211;48.548;2.704;2023-12-20T07:38:29;28.63;;;6.22;;
74679;SDS011;63211;48.548;2.704;2023-12-20T07:40:56;27.90;;;6.07;;
74679;SDS011;63211;48.548;2.704;2023-12-20T07:43:23;30.00;;;5.38;;
74679;SDS011;63211;48.548;2.704;2023-12-20T07:45:50;34.30;;;5.53;;
74679;SDS011;63211;48.548;2.704;2023-12-20T07:48:17;24.13;;;4.90;;
74679;SDS011;63211;48.548;2.704;2023-12-20T07:50:44;27.27;;;5.65;;
74679;SDS011;63211;48.548;2.704;2023-12-20T07:53:10;21.88;;;4.30;;
74679;SDS011;63211;48.548;2.704;2023-12-20T07:55:37;28.38;;;4.43;;
74679;SDS011;63211;48.548;2.704;2023-12-20T07:58:03;23.00;;;4.07;;
74679;SDS011;63211;48.548;2.704;2023-12-20T08:00:30;20.02;;;4.40;;
74679;SDS011;63211;48.548;2.704;2023-12-20T08:02:58;13.25;;;3.10;;
74679;SDS011;63211;48.548;2.704;2023-12-20T08:05:28;18.52;;;4.32;;
74679;SDS011;63211;48.548;2.704;2023-12-20T08:07:55;17.08;;;4.35;;
74679;SDS011;63211;48.548;2.704;2023-12-20T08:10:21;16.50;;;3.60;;
74679;SDS011;63211;48.548;2.704;2023-12-20T08:12:48;17.98;;;3.03;;
74679;SDS011;63211;48.548;2.704;2023-12-20T08:15:14;25.98;;;4.00;;
74679;SDS011;63211;48.548;2.704;2023-12-20T08:17:41;15.15;;;3.20;;
74679;SDS011;63211;48.548;2.704;2023-12-20T08:20:09;14.43;;;2.83;;
74679;SDS011;63211;48.548;2.704;2023-12-20T08:22:36;12.07;;;2.97;;
74679;SDS011;63211;48.548;2.704;2023-12-20T08:25:03;14.15;;;3.72;;
74679;SDS011;63211;48.548;2.704;2023-12-20T08:27:30;11.38;;;3.50;;
74679;SDS011;63211;48.548;2.704;2023-12-20T08:29:57;13.52;;;3.05;;
74679;SDS011;63211;48.548;2.704;2023-12-20T08:32:24;9.88;;;2.05;;
74679;SDS011;63211;48.548;2.704;2023-12-20T08:34:51;7.05;;;1.77;;
74679;SDS011;63211;48.548;2.704;2023-12-20T08:37:19;9.55;;;2.47;;
74679;SDS011;63211;48.548;2.704;2023-12-20T08:39:45;8.20;;;1.85;;
74679;SDS011;63211;48.548;2.704;2023-12-20T08:42:12;7.35;;;2.38;;
74679;SDS011;63211;48.548;2.704;2023-12-20T08:44:39;6.25;;;1.58;;
74679;SDS011;63211;48.548;2.704;2023-12-20T08:47:05;8.80;;;1.67;;
74679;SDS011;63211;48.548;2.704;2023-12-20T08:49:32;10.82;;;3.65;;
74679;SDS011;63211;48.548;2.704;2023-12-20T08:51:58;7.32;;;2.20;;
74679;SDS011;63211;48.548;2.704;2023-12-20T08:54:26;7.97;;;1.88;;
74679;SDS011;63211;48.548;2.704;2023-12-20T08:56:53;15.73;;;2.78;;
74679;SDS011;63211;48.548;2.704;2023-12-20T08:59:19;7.43;;;1.45;;
74679;SDS011;63211;48.548;2.704;2023-12-20T09:01:46;5.25;;;1.67;;
74679;SDS011;63211;48.548;2.704;2023-12-20T09:04:13;7.00;;;1.48;;
74679;SDS011;63211;48.548;2.704;2023-12-20T09:06:40;6.10;;;1.83;;
74679;SDS011;63211;48.548;2.704;2023-12-20T09:09:06;5.88;;;1.27;;
74679;SDS011;63211;48.548;2.704;2023-12-20T09:11:36;7.07;;;0.90;;
74679;SDS011;63211;48.548;2.704;2023-12-20T09:14:03;9.23;;;2.17;;
74679;SDS011;63211;48.548;2.704;2023-12-20T09:16:29;4.55;;;1.48;;
74679;SDS011;63211;48.548;2.704;2023-12-20T09:18:56;5.50;;;1.10;;
74679;SDS011;63211;48.548;2.704;2023-12-20T09:21:23;2.72;;;0.75;;
74679;SDS011;63211;48.548;2.704;2023-12-20T09:23:50;4.85;;;0.93;;
74679;SDS011;63211;48.548;2.704;2023-12-20T09:26:17;3.95;;;0.90;;
74679;SDS011;63211;48.548;2.704;2023-12-20T09:28:44;3.08;;;0.52;;
74679;SDS011;63211;48.548;2.704;2023-12-20T09:31:11;5.03;;;1.25;;
74679;SDS011;63211;48.548;2.704;2023-12-20T09:33:38;1.73;;;0.45;;
74679;SDS011;63211;48.548;2.704;2023-12-20T09:36:04;5.05;;;0.60;;
74679;SDS011;63211;48.548;2.704;2023-12-20T09:38:31;2.63;;;0.50;;
74679;SDS011;63211;48.548;2.704;2023-12-20T09:40:58;4.20;;;0.85;;
74679;SDS011;63211;48.548;2.704;2023-12-20T09:43:26;3.80;;;0.82;;
74679;SDS011;63211;48.548;2.704;2023-12-20T09:45:56;3.20;;;0.50;;
74679;SDS011;63211;48.548;2.704;2023-12-20T09:48:27;4.45;;;0.73;;
74679;SDS011;63211;48.548;2.704;2023-12-20T09:50:55;2.95;;;0.52;;
74679;SDS011;63211;48.548;2.704;2023-12-20T09:53:22;4.45;;;0.73;;
74679;SDS011;63211;48.548;2.704;2023-12-20T09:55:54;3.33;;;0.60;;
74679;SDS011;63211;48.548;2.704;2023-12-20T09:58:24;2.08;;;0.32;;
74679;SDS011;63211;48.548;2.704;2023-12-20T10:00:50;1.70;;;0.45;;
74679;SDS011;63211;48.548;2.704;2023-12-20T10:03:18;3.13;;;0.32;;
74679;SDS011;63211;48.548;2.704;2023-12-20T10:05:50;1.02;;;0.30;;
74679;SDS011;63211;48.548;2.704;2023-12-20T10:08:21;2.28;;;0.50;;
74679;SDS011;63211;48.548;2.704;2023-12-20T10:10:48;1.95;;;0.80;;
74679;SDS011;63211;48.548;2.704;2023-12-20T10:13:15;1.73;;;1.00;;
74679;SDS011;63211;48.548;2.704;2023-12-20T10:15:41;2.40;;;0.52;;
74679;SDS011;63211;48.548;2.704;2023-12-20T10:18:08;2.50;;;0.40;;
74679;SDS011;63211;48.548;2.704;2023-12-20T10:20:37;2.45;;;0.95;;
74679;SDS011;63211;48.548;2.704;2023-12-20T10:23:04;2.25;;;0.30;;
74679;SDS011;63211;48.548;2.704;2023-12-20T10:25:30;1.98;;;0.55;;
74679;SDS011;63211;48.548;2.704;2023-12-20T10:28:08;3.13;;;0.52;;
74679;SDS011;63211;48.548;2.704;2023-12-20T10:30:36;2.83;;;0.20;;
74679;SDS011;63211;48.548;2.704;2023-12-20T10:33:02;2.13;;;0.30;;
74679;SDS011;63211;48.548;2.704;2023-12-20T10:35:29;2.70;;;0.43;;
74679;SDS011;63211;48.548;2.704;2023-12-20T10:37:57;1.00;;;0.20;;
74679;SDS011;63211;48.548;2.704;2023-12-20T10:40:26;1.50;;;0.35;;
74679;SDS011;63211;48.548;2.704;2023-12-20T10:42:55;1.20;;;0.30;;
74679;SDS011;63211;48.548;2.704;2023-12-20T10:45:22;0.57;;;0.17;;
74679;SDS011;63211;48.548;2.704;2023-12-20T10:47:49;1.38;;;0.28;;
74679;SDS011;63211;48.548;2.704;2023-12-20T10:50:16;0.90;;;0.50;;
74679;SDS011;63211;48.548;2.704;2023-12-20T10:52:44;2.50;;;0.20;;
74679;SDS011;63211;48.548;2.704;2023-12-20T10:55:14;1.73;;;0.30;;
74679;SDS011;63211;48.548;2.704;2023-12-20T10:57:40;0.75;;;0.32;;
74679;SDS011;63211;48.548;2.704;2023-12-20T11:00:08;0.95;;;0.20;;
74679;SDS011;63211;48.548;2.704;2023-12-20T11:02:40;2.95;;;0.40;;
74679;SDS011;63211;48.548;2.704;2023-12-20T11:05:10;0.80;;;0.10;;
74679;SDS011;63211;48.548;2.704;2023-12-20T11:07:47;2.58;;;0.30;;
74679;SDS011;63211;48.548;2.704;2023-12-20T11:10:18;0.73;;;0.30;;
74679;SDS011;63211;48.548;2.704;2023-12-20T11:12:51;1.08;;;0.28;;
74679;SDS011;63211;48.548;2.704;2023-12-20T11:15:20;1.35;;;0.20;;
74679;SDS011;63211;48.548;2.704;2023-12-20T11:17:54;1.90;;;0.20;;
74679;SDS011;63211;48.548;2.704;2023-12-20T11:20:22;0.98;;;0.30;;
74679;SDS011;63211;48.548;2.704;2023-12-20T11:22:52;1.00;;;0.17;;
74679;SDS011;63211;48.548;2.704;2023-12-20T11:25:21;1.10;;;0.40;;
74679;SDS011;63211;48.548;2.704;2023-12-20T11:30:41;0.60;;;0.20;;
74679;SDS011;63211;48.548;2.704;2023-12-20T11:33:09;2.35;;;0.22;;
74679;SDS011;63211;48.548;2.704;2023-12-20T11:35:35;1.40;;;0.30;;
74679;SDS011;63211;48.548;2.704;2023-12-20T11:38:03;2.25;;;0.10;;
74679;SDS011;63211;48.548;2.704;2023-12-20T11:40:31;0.47;;;0.15;;
74679;SDS011;63211;48.548;2.704;2023-12-20T11:43:01;1.33;;;0.30;;
74679;SDS011;63211;48.548;2.704;2023-12-20T11:45:28;0.40;;;0.10;;
74679;SDS011;63211;48.548;2.704;2023-12-20T11:47:56;2.22;;;0.08;;
74679;SDS011;63211;48.548;2.704;2023-12-20T11:50:23;0.98;;;0.10;;
74679;SDS011;63211;48.548;2.704;2023-12-20T11:52:51;0.20;;;0.10;;
74679;SDS011;63211;48.548;2.704;2023-12-20T11:55:18;0.73;;;0.20;;
74679;SDS011;63211;48.548;2.704;2023-12-20T11:57:46;1.25;;;0.20;;
74679;SDS011;63211;48.548;2.704;2023-12-20T12:00:13;0.30;;;0.05;;
74679;SDS011;63211;48.548;2.704;2023-12-20T12:02:41;1.10;;;0.30;;
74679;SDS011;63211;48.548;2.704;2023-12-20T12:05:08;0.77;;;0.45;;
74679;SDS011;63211;48.548;2.704;2023-12-20T12:07:35;0.55;;;0.05;;
74679;SDS011;63211;48.548;2.704;2023-12-20T12:10:01;1.20;;;0.20;;
74679;SDS011;63211;48.548;2.704;2023-12-20T12:12:29;2.20;;;0.35;;
74679;SDS011;63211;48.548;2.704;2023-12-20T12:14:58;1.30;;;0.15;;
74679;SDS011;63211;48.548;2.704;2023-12-20T12:17:25;1.73;;;0.30;;
74679;SDS011;63211;48.548;2.704;2023-12-20T12:19:52;2.65;;;0.20;;
74679;SDS011;63211;48.548;2.704;2023-12-20T12:22:29;0.80;;;0.10;;
74679;SDS011;63211;48.548;2.704;2023-12-20T12:24:58;0.63;;;0.10;;
74679;SDS011;63211;48.548;2.704;2023-12-20T12:27:25;0.95;;;0.10;;
74679;SDS011;63211;48.548;2.704;2023-12-20T12:30:04;1.08;;;0.25;;
74679;SDS011;63211;48.548;2.704;2023-12-20T12:32:32;2.47;;;0.73;;
74679;SDS011;63211;48.548;2.704;2023-12-20T12:34:59;1.10;;;0.13;;
74679;SDS011;63211;48.548;2.704;2023-12-20T12:37:25;0.50;;;0.10;;
74679;SDS011;63211;48.548;2.704;2023-12-20T12:39:53;1.48;;;0.20;;
74679;SDS011;63211;48.548;2.704;2023-12-20T12:42:20;0.80;;;0.25;;
74679;SDS011;63211;48.548;2.704;2023-12-20T12:44:46;1.48;;;0.20;;
74679;SDS011;63211;48.548;2.704;2023-12-20T12:47:14;0.65;;;0.17;;
74679;SDS011;63211;48.548;2.704;2023-12-20T12:49:41;0.30;;;0.10;;
74679;SDS011;63211;48.548;2.704;2023-12-20T12:52:07;1.00;;;0.20;;
74679;SDS011;63211;48.548;2.704;2023-12-20T12:54:34;0.35;;;0.15;;
74679;SDS011;63211;48.548;2.704;2023-12-20T12:57:01;1.15;;;0.30;;
74679;SDS011;63211;48.548;2.704;2023-12-20T12:59:28;1.05;;;0.30;;
74679;SDS011;63211;48.548;2.704;2023-12-20T13:01:55;1.67;;;0.20;;
74679;SDS011;63211;48.548;2.704;2023-12-20T13:04:23;1.02;;;0.28;;
74679;SDS011;63211;48.548;2.704;2023-12-20T13:06:49;1.83;;;0.20;;
74679;SDS011;63211;48.548;2.704;2023-12-20T13:09:16;2.03;;;0.60;;
74679;SDS011;63211;48.548;2.704;2023-12-20T13:11:44;0.15;;;0.10;;
74679;SDS011;63211;48.548;2.704;2023-12-20T13:14:10;0.88;;;0.10;;
74679;SDS011;63211;48.548;2.704;2023-12-20T13:16:40;1.25;;;0.17;;
74679;SDS011;63211;48.548;2.704;2023-12-20T13:19:07;0.08;;;0.08;;
74679;SDS011;63211;48.548;2.704;2023-12-20T13:21:36;1.50;;;0.20;;
74679;SDS011;63211;48.548;2.704;2023-12-20T13:24:03;1.10;;;0.10;;
74679;SDS011;63211;48.548;2.704;2023-12-20T13:26:30;0.60;;;0.10;;
74679;SDS011;63211;48.548;2.704;2023-12-20T13:28:56;1.27;;;0.20;;
74679;SDS011;63211;48.548;2.704;2023-12-20T13:31:23;0.60;;;0.40;;
74679;SDS011;63211;48.548;2.704;2023-12-20T13:33:49;2.17;;;0.50;;
74679;SDS011;63211;48.548;2.704;2023-12-20T13:36:17;0.70;;;0.20;;
74679;SDS011;63211;48.548;2.704;2023-12-20T13:38:45;0.75;;;0.15;;
74679;SDS011;63211;48.548;2.704;2023-12-20T13:41:11;3.17;;;0.30;;
74679;SDS011;63211;48.548;2.704;2023-12-20T13:43:38;0.88;;;0.22;;
74679;SDS011;63211;48.548;2.704;2023-12-20T13:46:05;0.43;;;0.10;;
74679;SDS011;63211;48.548;2.704;2023-12-20T13:48:31;0.20;;;0.00;;
74679;SDS011;63211;48.548;2.704;2023-12-20T13:50:58;1.13;;;0.15;;
74679;SDS011;63211;48.548;2.704;2023-12-20T13:53:25;0.63;;;0.20;;
74679;SDS011;63211;48.548;2.704;2023-12-20T13:55:53;0.35;;;0.10;;
74679;SDS011;63211;48.548;2.704;2023-12-20T13:58:19;0.40;;;0.08;;
74679;SDS011;63211;48.548;2.704;2023-12-20T14:00:46;1.27;;;0.20;;
74679;SDS011;63211;48.548;2.704;2023-12-20T14:03:13;0.28;;;0.10;;
74679;SDS011;63211;48.548;2.704;2023-12-20T14:05:39;1.42;;;0.10;;
74679;SDS011;63211;48.548;2.704;2023-12-20T14:08:06;0.63;;;0.13;;
74679;SDS011;63211;48.548;2.704;2023-12-20T14:10:34;0.95;;;0.28;;
74679;SDS011;63211;48.548;2.704;2023-12-20T14:13:02;1.50;;;0.20;;
74679;SDS011;63211;48.548;2.704;2023-12-20T14:15:29;1.17;;;0.20;;
74679;SDS011;63211;48.548;2.704;2023-12-20T14:18:01;1.40;;;0.30;;
74679;SDS011;63211;48.548;2.704;2023-12-20T14:20:27;1.30;;;0.80;;
74679;SDS011;63211;48.548;2.704;2023-12-20T14:22:54;1.55;;;0.20;;
74679;SDS011;63211;48.548;2.704;2023-12-20T14:25:21;0.85;;;0.25;;
74679;SDS011;63211;48.548;2.704;2023-12-20T14:27:48;1.13;;;0.25;;
74679;SDS011;63211;48.548;2.704;2023-12-20T14:30:16;1.13;;;0.20;;
74679;SDS011;63211;48.548;2.704;2023-12-20T14:32:42;1.35;;;0.17;;
74679;SDS011;63211;48.548;2.704;2023-12-20T14:35:09;1.25;;;0.15;;
74679;SDS011;63211;48.548;2.704;2023-12-20T14:37:36;0.52;;;0.08;;
74679;SDS011;63211;48.548;2.704;2023-12-20T14:40:05;0.98;;;0.10;;
74679;SDS011;63211;48.548;2.704;2023-12-20T14:42:35;0.85;;;0.13;;
74679;SDS011;63211;48.548;2.704;2023-12-20T14:45:02;1.20;;;0.13;;
74679;SDS011;63211;48.548;2.704;2023-12-20T14:47:30;0.65;;;0.40;;
74679;SDS011;63211;48.548;2.704;2023-12-20T14:49:57;0.73;;;0.20;;
74679;SDS011;63211;48.548;2.704;2023-12-20T14:52:23;0.38;;;0.10;;